Pagrindinis puslapis
METAR-TAF:

METAR-TAF

Oro uostai :

Lechfeld, Vokietija

platuma: 48-11N, ilguma: 010-52E, Aukštis: 555 m

Dabartinis oras

Ataskaita buvo paskelbta 27 minutes, ne 21:20 UTC
Vėjas 5 kt iš Pietų
Temperatūra 3°C
Drėgmė 93%
Slėgis 1013 hPa
Matomumas 10 km arba daugiau

METAR: ETSL 272120Z AUTO 19005KT 9999 // ////// 03/02 Q1013 ///

Laikas: 22:47 (21:47 UTC)

Prognozė

Ataskaita buvo paskelbta 4 valandos ir 27 minutes, ne 17:20 UTC
Prognozė galioja nuo 27 metu 18 UTC su 28 metu 03 UTC
Vėjas 5 kt iš Pietų/Pietvakarių
Matomumas 10 km arba daugiau
Išsisklaidę debesys ne aukštis 5000 ft
Su prošvaistėmis ne aukštis 15000 ft
Laikinai
nuo 27 metu 15 UTC su 27 metu 24 UTC
Vėjas 8 kt iš Pietų/Pietvakarių
Matomumas 10 km arba daugiau
Mažai debesys ne aukštis 5000 ft

TAF: ETSL 271720Z 2718/2803 20005KT 9999 NSW SCT050 BKN150 TEMPO 2715/2724 20008KT 9999 NSW FEW050 BY ETHN

Orai ataskaitas ir orų prognozės (METAR, TAF).

turimą stotys yra geltonos ir raudonos taškus žemėlapyje.

Perkelti pele per norėdami pamatyti stoties vardą.

Tada spustelėkite, norėdami matyti oro stebėjimo ir prognozės.

Norėdami pakeisti žemėlapį: spustelėkite ant žalios mygtukų su juodo kryžiaus žemyn,; žalią mygtuką su brūkšneliu, jei norite nutolinti; arba žalių rodyklių gretimoms žemėlapius.


METAR-TAF: